Terminal Aerodrome Forecast
Issued by NWS Tampa Bay Area, FL

Home | Current Version | Previous Version | Text Only | Print | Product List | Glossary On
Versions: 1 2 3 4 5 6 7 8 9 10 11 12 13 14
000
FTUS42 KTBW 010539
TAFFMY
TAF
KFMY 010539Z 0106/0206 14006KT P6SM -RA VCTS SCT025CB BKN050 OVC080
      TEMPO 0106/0108 VRB20G30KT 3SM +TSRA BKN025CB
     FM011400 19008KT P6SM SCT025 BKN100
     FM011700 22012G20KT P6SM VCTS SCT035CB BKN050 OVC100
     FM020100 21006KT P6SM VCTS SCT025CB BKN040=

USA.gov is the U.S. government's official web portal to all federal, state and local government web resources and services.